Latest Weather Observations for Ernabella/Pukatja

IDS60801

Issued at 5:35 pm CST Saturday 30 August 2014 (issued every 30 minutes, with the page automatically refreshed every 10 minutes)

About weather observations | Map of weather stations | Latest weather observations for SA | Other Formats
Station Details ID: 016097 Name: PUKATJA Lat: -26.26 Lon: 132.18 Height: 703.2 m
Data from the previous 72 hours. | See also: Recent months at Ernabella/Pukatja
Date/Time
CST
Temp
°C
App
Temp
°C
Dew
Point
Rel
Hum
%
Delta-T
°C
Wind Press
QNH
hPa
Press
MSL
hPa
Rain
since 9 am
mm
Dir
 
Spd
km/h
Gust
km/h
Spd
kts
Gust
kts
30/05:30pm 24.2 19.7 -7.0 12 12.9 W 9 15 5 8 1019.3 - 0.0
30/05:00pm 24.1 19.6 -7.0 12 12.9 ENE 9 15 5 8 1019.1 - 0.0
30/04:30pm 24.4 19.1 -6.8 12 13.0 NW 13 20 7 11 1019.0 - 0.0
30/04:00pm 25.0 20.9 -6.3 12 13.3 WSW 7 13 4 7 1019.0 - 0.0
30/03:30pm 24.2 19.8 -5.9 13 12.8 WNW 9 15 5 8 1019.2 - 0.0
30/03:00pm 24.9 20.2 -5.4 13 13.0 NE 11 20 6 11 1019.3 1018.3 0.0
30/02:30pm 24.6 19.9 -4.6 14 12.7 NW 11 17 6 9 1019.7 - 0.0
30/02:00pm 23.7 19.4 -4.4 15 12.2 W 9 15 5 8 1020.4 - 0.0
30/01:30pm 22.9 17.8 -5.1 15 11.9 W 13 20 7 11 1020.9 - 0.0
30/01:00pm 23.0 18.5 -3.3 17 11.6 W 11 17 6 9 1021.3 - 0.0
30/12:30pm 22.0 17.1 -3.4 18 11.1 NW 13 20 7 11 1022.0 - 0.0
30/12:00pm 21.7 16.5 -2.9 19 10.8 N 15 24 8 13 1022.6 1021.6 0.0
30/11:30am 21.7 16.5 -2.9 19 10.8 N 15 24 8 13 1023.2 - 0.0
30/11:00am 20.6 14.7 -2.5 21 10.1 N 19 24 10 13 1023.4 - 0.0
30/10:30am 19.3 12.7 -2.9 22 9.6 NNE 22 32 12 17 1023.7 - 0.0
30/10:00am 18.6 12.1 -2.3 24 9.1 NNE 22 30 12 16 1023.9 - 0.0
30/09:30am 17.8 11.9 -2.5 25 8.7 N 19 28 10 15 1024.2 - 0.0
30/09:00am 17.2 11.1 -3.5 24 8.6 N 19 28 10 15 1024.4 1023.5 0.0
30/08:30am 16.0 10.7 -4.0 25 8.2 N 15 20 8 11 1024.4 - 0.0
30/08:00am 14.9 10.0 -3.4 28 7.5 NNE 13 20 7 11 1024.1 - 0.0
30/07:30am 13.5 8.3 -2.8 32 6.7 NNE 15 19 8 10 1023.8 - 0.0
30/07:00am 12.1 7.4 -2.1 37 5.8 NNE 13 19 7 10 1023.7 - 0.0
30/06:30am 9.5 5.9 -2.1 44 4.6 NNE 7 11 4 6 1023.4 - 0.0
30/06:00am 8.4 6.1 -2.2 47 4.1 CALM 0 0 0 0 1023.3 1022.3 0.0
30/05:30am 8.0 5.7 -2.3 48 4.0 CALM 0 0 0 0 1023.1 - 0.0
30/05:00am 5.6 3.2 -3.5 52 3.3 CALM 0 0 0 0 1022.8 - 0.0
30/04:30am 8.1 5.8 -2.0 49 4.0 CALM 0 0 0 0 1022.8 - 0.0
30/04:00am 9.3 5.0 -2.0 45 4.5 E 11 13 6 7 1022.7 - 0.0
30/03:30am 8.6 4.6 -2.1 47 4.2 E 9 11 5 6 1022.9 - 0.0
30/03:00am 8.3 3.8 -3.2 44 4.4 E 11 13 6 7 1022.8 1021.9 0.0
30/02:30am 10.5 7.0 -1.5 43 4.9 E 7 9 4 5 1023.1 - 0.0
30/02:00am 8.8 6.6 -1.9 47 4.2 CALM 0 0 0 0 1023.4 - 0.0
30/01:30am 11.2 7.2 -1.9 40 5.3 E 9 11 5 6 1023.4 - 0.0
30/01:00am 11.7 7.8 -1.8 39 5.5 E 9 9 5 5 1023.5 - 0.0
30/12:30am 10.9 6.6 -1.8 41 5.2 E 11 11 6 6 1023.5 - 0.0
30/12:00am 11.2 7.2 -1.9 40 5.3 E 9 11 5 6 1023.6 1022.6 0.0
 
Date/Time
CST
Temp
°C
App
Temp
°C
Dew
Point
Rel
Hum
%
Delta-T
°C
Wind Press
QNH
hPa
Press
MSL
hPa
Rain
since 9 am
mm
Dir
 
Spd
km/h
Gust
km/h
Spd
kts
Gust
kts
29/11:30pm 12.7 8.0 -2.0 36 6.1 E 13 15 7 8 1023.5 - 0.0
29/11:00pm 13.9 10.0 -1.3 35 6.4 ESE 9 9 5 5 1023.4 - 0.0
29/10:30pm 13.3 9.0 -1.8 35 6.3 E 11 11 6 6 1023.6 - 0.0
29/10:00pm 13.6 9.3 -1.6 35 6.4 E 11 11 6 6 1023.6 - 0.0
29/09:30pm 13.7 9.4 -1.5 35 6.4 E 11 11 6 6 1023.6 - 0.0
29/09:00pm 13.3 8.5 -2.2 34 6.4 ENE 13 13 7 7 1023.4 1022.4 0.0
29/08:30pm 14.5 9.8 -2.0 32 6.9 E 13 13 7 7 1023.4 - 0.0
29/08:00pm 14.8 10.4 -2.6 30 7.2 E 11 11 6 6 1023.3 - 0.0
29/07:30pm 16.3 12.7 -2.2 28 7.9 E 7 11 4 6 1022.6 - 0.0
29/07:00pm 17.4 13.4 -2.3 26 8.4 E 9 11 5 6 1022.2 - 0.0
29/06:30pm 19.0 14.3 -2.0 24 9.2 ENE 13 17 7 9 1021.9 - 0.0
29/06:00pm 21.5 17.5 -2.4 20 10.6 NE 9 11 5 6 1021.8 1020.8 0.0
29/05:30pm 22.2 17.4 -2.5 19 11.0 NE 13 19 7 10 1021.6 - 0.0
29/05:00pm 22.5 17.6 -3.0 18 11.3 NNE 13 20 7 11 1021.6 - 0.0
29/04:30pm 22.8 17.6 -2.7 18 11.4 NNE 15 22 8 12 1021.7 - 0.0
29/04:00pm 22.7 17.3 -1.4 20 11.0 NE 17 28 9 15 1021.8 - 0.0
29/03:30pm 23.1 18.3 -2.5 18 11.5 N 13 24 7 13 1021.9 - 0.0
29/03:00pm 22.7 18.1 -1.4 20 11.0 N 13 24 7 13 1022.1 1021.1 0.0
29/02:30pm 22.6 18.3 -1.5 20 11.0 N 11 28 6 15 1022.5 - 0.0
29/02:00pm 22.2 16.3 -1.1 21 10.7 NE 20 32 11 17 1022.8 - 0.0
29/01:30pm 22.2 16.4 0.1 23 10.3 N 20 33 11 18 1023.4 - 0.0
29/01:00pm 22.1 16.5 0.0 23 10.3 NNE 19 32 10 17 1023.9 - 0.0
29/12:30pm 21.7 15.6 0.3 24 10.0 NNE 22 32 12 17 1024.4 - 0.0
29/12:00pm 20.6 14.5 0.4 26 9.3 NNE 22 30 12 16 1025.0 1024.0 0.0
29/11:30am 20.0 13.9 0.5 27 9.0 NNE 22 32 12 17 1025.6 - 0.0
29/11:00am 20.3 14.6 0.7 27 9.1 NNE 20 32 11 17 1025.6 - 0.0
29/10:30am 19.5 13.0 0.5 28 8.8 NE 24 32 13 17 1026.2 - 0.0
29/10:00am 18.9 12.8 0.5 29 8.5 NNE 22 32 12 17 1026.4 - 0.0
29/09:30am 18.2 14.3 1.3 32 7.8 NNE 11 20 6 11 1026.6 - 0.0
29/09:00am 17.0 12.8 1.4 35 7.1 ENE 13 19 7 10 1026.4 1025.4 0.0
29/08:30am 14.4 10.1 1.3 41 5.9 E 13 15 7 8 1026.3 - 0.0
29/08:00am 13.1 9.5 0.8 43 5.4 E 9 11 5 6 1026.2 - 0.0
29/07:30am 9.3 5.6 0.2 53 3.8 E 9 11 5 6 1026.0 - 0.0
29/07:00am 6.3 2.9 -0.7 61 2.8 E 7 9 4 5 1025.9 - 0.0
29/06:30am 5.1 0.7 -2.7 57 2.9 E 11 11 6 6 1025.8 - 0.0
29/06:00am 5.2 1.2 -2.6 57 2.9 E 9 9 5 5 1025.5 1024.6 0.0
29/05:30am 6.1 3.8 -2.5 54 3.3 CALM 0 0 0 0 1025.2 - 0.0
29/05:00am 8.3 6.2 -1.0 52 3.7 CALM 0 0 0 0 1025.1 - 0.0
29/04:30am 5.8 3.2 -4.6 47 3.7 CALM 0 0 0 0 1024.9 - 0.0
29/04:00am 8.4 6.2 -1.4 50 3.9 CALM 0 0 0 0 1025.0 - 0.0
29/03:30am 8.3 5.9 -3.2 44 4.4 CALM 0 0 0 0 1024.9 - 0.0
29/03:00am 7.1 3.5 -4.0 45 4.1 ENE 6 7 3 4 1024.9 1023.9 0.0
29/02:30am 8.3 4.1 -3.5 43 4.5 ENE 9 9 5 5 1024.9 - 0.0
29/02:00am 8.6 4.9 -2.9 44 4.4 NNE 7 9 4 5 1025.0 - 0.0
29/01:30am 7.7 4.0 -4.4 42 4.5 ENE 6 7 3 4 1025.1 - 0.0
29/01:00am 10.1 6.4 -3.2 39 5.2 ENE 7 9 4 5 1025.2 - 0.0
29/12:30am 10.7 6.9 -3.7 36 5.6 ENE 7 9 4 5 1025.4 - 0.0
29/12:00am 11.4 7.2 -3.9 34 5.9 E 9 9 5 5 1025.4 1024.5 0.0
 
Date/Time
CST
Temp
°C
App
Temp
°C
Dew
Point
Rel
Hum
%
Delta-T
°C
Wind Press
QNH
hPa
Press
MSL
hPa
Rain
since 9 am
mm
Dir
 
Spd
km/h
Gust
km/h
Spd
kts
Gust
kts
28/11:30pm 11.0 6.7 -4.6 33 6.0 E 9 11 5 6 1025.3 - 0.0
28/11:00pm 11.0 7.1 -4.6 33 6.0 E 7 9 4 5 1025.3 - 0.0
28/10:30pm 11.8 7.4 -5.6 29 6.5 E 9 11 5 6 1025.5 - 0.0
28/10:00pm 12.4 8.0 -5.6 28 6.8 E 9 9 5 5 1025.4 - 0.0
28/09:30pm 12.7 8.7 -5.8 27 7.0 ENE 7 9 4 5 1025.4 - 0.0
28/09:00pm 12.8 8.8 -5.7 27 7.0 ENE 7 7 4 4 1025.1 1024.1 0.0
28/08:30pm 12.9 8.5 -6.1 26 7.2 ENE 9 11 5 6 1024.9 - 0.0
28/08:00pm 13.4 8.5 -6.7 24 7.5 ENE 11 13 6 7 1024.6 - 0.0
28/07:30pm 14.8 10.4 -6.1 23 8.0 ENE 9 11 5 6 1024.3 - 0.0
28/07:00pm 16.4 11.1 -7.3 19 9.1 E 13 15 7 8 1024.0 - 0.0
28/06:30pm 18.5 12.8 -7.8 16 10.2 E 15 19 8 10 1023.6 - 0.0
28/06:00pm 20.4 14.3 -8.0 14 11.1 ENE 17 24 9 13 1023.5 1022.5 0.0
28/05:30pm 21.3 14.6 -8.2 13 11.7 E 20 32 11 17 1023.3 - 0.0
28/05:00pm 21.8 16.0 -8.8 12 12.0 ENE 15 30 8 16 1023.4 - 0.0
28/04:30pm 22.5 15.9 -9.4 11 12.5 E 19 35 10 19 1023.4 - 0.0
28/04:00pm 22.4 16.5 -9.5 11 12.4 NE 15 24 8 13 1023.5 - 0.0
28/03:30pm 22.9 16.7 -9.1 11 12.6 NE 17 24 9 13 1023.6 - 0.0
28/03:00pm 22.7 16.2 -8.1 12 12.3 ENE 19 28 10 15 1023.5 1022.5 0.0
28/02:30pm 22.6 16.7 -10.5 10 12.7 ENE 15 24 8 13 1023.8 - 0.0
28/02:00pm 22.5 16.6 -9.4 11 12.5 ENE 15 37 8 20 1024.0 - 0.0
28/01:30pm 21.8 15.7 -7.8 13 11.8 E 17 30 9 16 1024.3 - 0.0
28/01:00pm 21.8 14.5 -6.8 14 11.7 NE 24 33 13 18 1024.9 - 0.0
28/12:30pm 21.2 14.3 -6.4 15 11.3 ENE 22 35 12 19 1025.3 - 0.0
28/12:00pm 20.6 14.1 -6.1 16 10.9 ENE 20 30 11 16 1025.8 1024.9 0.0
28/11:30am 19.8 13.1 -4.5 19 10.2 ENE 22 30 12 16 1026.2 - 0.0
28/11:00am 19.5 12.5 -3.4 21 9.8 E 24 35 13 19 1026.4 - 0.0
28/10:30am 18.5 11.3 -1.9 25 8.9 ENE 26 35 14 19 1026.7 - 0.0
28/10:00am 17.6 11.2 -1.6 27 8.4 ENE 22 32 12 17 1026.8 - 0.0
28/09:30am 16.4 10.0 -1.7 29 7.8 ENE 22 30 12 16 1026.8 - 0.0
28/09:00am 15.4 10.0 -1.6 31 7.2 ENE 17 26 9 14 1026.9 1026.0 0.0
28/08:30am 13.8 9.0 -2.2 33 6.6 ENE 13 17 7 9 1026.6 - 0.0
28/08:00am 12.2 8.1 -2.8 35 6.0 E 9 11 5 6 1026.3 - 0.0
28/07:30am 9.4 5.2 -3.8 39 5.0 E 9 11 5 6 1026.0 - 0.0
28/07:00am 5.9 2.1 -5.1 45 3.9 ENE 6 6 3 3 1025.7 - 0.0
28/06:30am 7.4 3.4 -5.3 40 4.6 E 7 7 4 4 1025.3 - 0.0
28/06:00am 9.0 4.7 -4.5 38 5.0 E 9 13 5 7 1025.1 1024.1 0.0
28/05:30am 9.6 4.6 -4.7 36 5.4 ESE 13 15 7 8 1024.9 - 0.0
28/05:00am 10.4 5.3 -4.8 34 5.7 ESE 13 15 7 8 1024.8 - 0.0
28/04:30am 10.7 5.2 -5.3 32 6.0 ESE 15 19 8 10 1024.7 - 0.0
28/04:00am 10.8 5.7 -5.2 32 6.0 ESE 13 15 7 8 1024.6 - 0.0
28/03:30am 10.9 5.8 -5.5 31 6.1 ESE 13 17 7 9 1024.7 - 0.0
28/03:00am 10.8 5.7 -5.6 31 6.1 E 13 15 7 8 1024.8 1023.8 0.0
28/02:30am 10.7 5.9 -5.7 31 6.1 ESE 11 13 6 7 1024.9 - 0.0
28/02:00am 10.6 6.2 -5.8 31 6.1 E 9 11 5 6 1025.2 - 0.0
28/01:30am 10.0 5.6 -5.9 32 5.8 E 9 11 5 6 1025.2 - 0.0
28/01:00am 9.8 4.9 -6.9 30 6.0 E 11 13 6 7 1025.4 - 0.0
28/12:30am 11.8 7.0 -6.1 28 6.7 E 11 13 6 7 1025.6 - 0.0
28/12:00am 11.5 6.6 -6.8 27 6.6 E 11 15 6 8 1025.8 1024.9 0.0
 
Date/Time
CST
Temp
°C
App
Temp
°C
Dew
Point
Rel
Hum
%
Delta-T
°C
Wind Press
QNH
hPa
Press
MSL
hPa
Rain
since 9 am
mm
Dir
 
Spd
km/h
Gust
km/h
Spd
kts
Gust
kts
27/11:30pm 11.7 7.6 -7.1 26 6.8 E 7 9 4 5 1025.8 - 0.0
27/11:00pm 10.9 6.3 -7.8 26 6.6 ENE 9 11 5 6 1025.7 - 0.0
27/10:30pm 11.3 6.7 -8.0 25 6.8 ENE 9 11 5 6 1025.6 - 0.0
27/10:00pm 11.4 6.8 -8.4 24 7.0 ENE 9 9 5 5 1025.6 - 0.0
27/09:30pm 12.5 7.5 -8.6 22 7.5 ENE 11 11 6 6 1025.5 - 0.0
27/09:00pm 13.6 8.6 -8.3 21 7.9 NE 11 15 6 8 1025.3 1024.4 0.0
27/08:30pm 14.8 10.1 -9.3 18 8.7 E 9 13 5 7 1025.0 - 0.0
27/08:00pm 18.0 12.6 -9.0 15 10.1 ESE 13 20 7 11 1024.4 - 0.0
27/07:30pm 18.3 12.4 -9.6 14 10.4 ESE 15 19 8 10 1024.0 - 0.0
27/07:00pm 18.8 13.4 -8.3 15 10.4 E 13 17 7 9 1023.7 - 0.0
27/06:30pm 19.2 13.7 -9.8 13 10.9 E 13 17 7 9 1023.4 - 0.0
27/06:00pm 21.2 15.3 -10.4 11 11.9 ESE 15 22 8 12 1023.1 1022.1 0.0

Other Formats:

Comma delimited format used in spreadsheet applications
http://www.bom.gov.au/fwo/IDS60801/IDS60801.94474.axf

JavaScript Object Notation format (JSON) in row-major order
http://www.bom.gov.au/fwo/IDS60801/IDS60801.94474.json